createdAt,value
2018-11-22T00:01:31.503Z,20.23
2018-11-22T00:04:02.849Z,22.23
2018-11-22T00:06:34.011Z,19.93
2018-11-22T00:09:09.267Z,20.77
2018-11-22T00:11:40.773Z,19.90
2018-11-22T00:14:11.829Z,20.37
2018-11-22T00:16:42.904Z,21.35
2018-11-22T00:19:13.975Z,20.17
2018-11-22T00:21:44.974Z,20.13
2018-11-22T00:24:16.029Z,20.00
2018-11-22T00:26:47.117Z,20.47
2018-11-22T00:29:18.176Z,18.80
2018-11-22T00:31:49.371Z,21.00
2018-11-22T00:34:20.613Z,20.07
2018-11-22T00:36:51.693Z,21.23
2018-11-22T00:39:22.858Z,20.23
2018-11-22T00:41:53.840Z,20.27
2018-11-22T00:44:24.894Z,19.87
2018-11-22T00:46:55.954Z,19.93
2018-11-22T00:49:27.123Z,20.40
2018-11-22T00:51:58.279Z,21.40
2018-11-22T00:54:29.422Z,21.15
2018-11-22T00:57:00.479Z,22.43
2018-11-22T00:59:31.570Z,20.83
2018-11-22T01:02:02.787Z,20.90
2018-11-22T01:04:33.727Z,20.80
2018-11-22T01:07:04.917Z,20.00
2018-11-22T01:09:36.006Z,21.30
2018-11-22T01:12:07.345Z,22.40
2018-11-22T01:14:38.311Z,20.90
2018-11-22T01:17:09.437Z,20.47
2018-11-22T01:19:41.836Z,22.10
2018-11-22T01:22:13.016Z,20.40
2018-11-22T01:24:44.160Z,21.37
2018-11-22T01:27:15.345Z,20.13
2018-11-22T01:29:46.486Z,21.70
2018-11-22T01:32:17.741Z,20.27
2018-11-22T01:34:48.915Z,21.10
2018-11-22T01:37:21.186Z,20.55
2018-11-22T01:39:52.407Z,20.43
2018-11-22T01:42:23.625Z,20.57
2018-11-22T01:44:54.920Z,20.20
2018-11-22T01:47:26.232Z,21.23
2018-11-22T01:49:57.511Z,21.33
2018-11-22T01:52:28.738Z,21.70
2018-11-22T01:55:00.085Z,21.27
2018-11-22T01:57:31.249Z,21.80
2018-11-22T02:00:02.476Z,21.47
2018-11-22T02:02:33.658Z,20.83
2018-11-22T02:05:05.062Z,20.77
2018-11-22T02:07:36.246Z,21.27
2018-11-22T02:10:09.888Z,19.93
2018-11-22T02:12:41.262Z,20.63
2018-11-22T02:15:31.177Z,20.87
2018-11-22T02:18:02.408Z,19.87
2018-11-22T02:20:33.596Z,19.80
2018-11-22T02:23:04.815Z,19.87
2018-11-22T02:25:37.343Z,20.37
2018-11-22T02:28:09.367Z,20.70
2018-11-22T02:30:40.564Z,18.93
2018-11-22T02:33:11.869Z,20.45
2018-11-22T02:35:43.099Z,19.80
2018-11-22T02:38:14.402Z,19.33
2018-11-22T02:40:45.586Z,19.37
2018-11-22T02:43:16.774Z,18.93
2018-11-22T02:45:48.038Z,18.83
2018-11-22T02:48:19.223Z,19.13
2018-11-22T02:50:50.497Z,19.70
2018-11-22T02:53:21.705Z,19.10
2018-11-22T02:55:52.879Z,19.53
2018-11-22T02:58:24.154Z,18.90
2018-11-22T03:00:55.361Z,19.77
2018-11-22T03:03:26.633Z,19.43
2018-11-22T03:05:57.876Z,19.13
2018-11-22T03:08:29.146Z,18.60
2018-11-22T03:11:00.363Z,19.48
2018-11-22T03:13:31.543Z,19.17
2018-11-22T03:16:02.834Z,19.17
2018-11-22T03:18:34.190Z,19.97
2018-11-22T03:21:05.465Z,19.07
2018-11-22T03:23:36.672Z,19.55
2018-11-22T03:26:08.043Z,18.93
2018-11-22T03:28:39.226Z,19.90
2018-11-22T03:31:10.426Z,20.37
2018-11-22T03:33:41.642Z,20.20
2018-11-22T03:36:14.077Z,20.13
2018-11-22T03:38:45.259Z,20.63
2018-11-22T03:41:16.425Z,20.40
2018-11-22T03:43:47.523Z,21.70
2018-11-22T03:46:18.699Z,21.73
2018-11-22T03:48:49.875Z,21.70
2018-11-22T03:51:21.029Z,18.93
2018-11-22T03:53:53.445Z,21.00
2018-11-22T03:56:24.622Z,21.00
2018-11-22T03:58:55.809Z,36.80
2018-11-22T04:01:27.119Z,22.37
2018-11-22T04:03:58.446Z,46.70
2018-11-22T04:06:29.617Z,31.27
2018-11-22T04:09:00.948Z,25.23
2018-11-22T04:11:33.074Z,32.55
2018-11-22T04:14:04.249Z,31.87
2018-11-22T04:16:35.433Z,91.33
2018-11-22T04:19:06.740Z,21.53
2018-11-22T04:21:43.452Z,20.43
2018-11-22T04:24:15.082Z,18.30
2018-11-22T04:26:46.307Z,18.63
2018-11-22T04:29:17.529Z,19.70
2018-11-22T04:31:48.831Z,20.07
2018-11-22T04:34:20.009Z,19.23
2018-11-22T04:36:51.192Z,18.47
2018-11-22T04:39:22.398Z,19.50
2018-11-22T04:41:53.715Z,19.00
2018-11-22T04:44:24.937Z,18.20
2018-11-22T04:46:56.172Z,19.87
2018-11-22T04:49:27.738Z,17.82
2018-11-22T04:51:58.907Z,17.97
2018-11-22T04:54:30.183Z,18.07
2018-11-22T04:57:01.425Z,18.57
2018-11-22T04:59:32.782Z,17.43
2018-11-22T05:02:04.066Z,18.63
2018-11-22T05:04:36.508Z,18.97
2018-11-22T05:07:07.981Z,19.20
2018-11-22T05:09:39.073Z,18.53
2018-11-22T05:12:10.395Z,17.87
2018-11-22T05:14:41.595Z,17.73
2018-11-22T05:17:12.781Z,17.17
2018-11-22T05:19:43.980Z,17.87
2018-11-22T05:22:15.198Z,17.70
2018-11-22T05:24:47.053Z,17.65
2018-11-22T05:27:18.245Z,16.63
2018-11-22T05:29:49.470Z,16.17
2018-11-22T05:32:20.681Z,17.27
2018-11-22T05:34:51.804Z,17.20
2018-11-22T05:37:23.077Z,16.10
2018-11-22T05:39:54.288Z,19.07
2018-11-22T05:42:25.997Z,17.52
2018-11-22T05:44:57.199Z,17.10
2018-11-22T05:47:28.304Z,17.80
2018-11-22T05:49:59.689Z,18.23
2018-11-22T05:52:30.876Z,16.10
2018-11-22T05:55:02.169Z,17.95
2018-11-22T05:57:33.404Z,16.93
2018-11-22T06:00:05.292Z,18.80
2018-11-22T06:02:36.499Z,17.87
2018-11-22T06:05:09.011Z,17.60
2018-11-22T06:07:40.297Z,17.93
2018-11-22T06:10:15.264Z,17.27
2018-11-22T06:12:46.683Z,16.42
2018-11-22T06:15:18.122Z,18.27
2018-11-22T06:17:49.946Z,17.87
2018-11-22T06:20:22.642Z,17.83
2018-11-22T06:22:55.592Z,18.70
2018-11-22T06:25:26.815Z,18.50
2018-11-22T06:27:58.495Z,17.32
2018-11-22T06:30:31.238Z,17.32
2018-11-22T06:33:03.425Z,17.27
2018-11-22T06:35:34.873Z,16.23
2018-11-22T06:38:06.105Z,16.87
2018-11-22T06:40:37.316Z,16.60
2018-11-22T06:43:08.555Z,17.57
2018-11-22T06:45:39.748Z,18.40
2018-11-22T06:48:10.950Z,21.30
2018-11-22T06:50:42.225Z,18.93
2018-11-22T06:53:13.450Z,18.65
2018-11-22T06:55:47.849Z,18.53
2018-11-22T06:58:15.920Z,17.80
2018-11-22T07:00:47.225Z,18.10
2018-11-22T07:03:18.531Z,18.70
2018-11-22T07:05:49.811Z,19.43
2018-11-22T07:08:21.100Z,21.67
2018-11-22T07:10:52.290Z,36.17
2018-11-22T07:13:23.616Z,26.93
2018-11-22T07:15:54.922Z,28.00
2018-11-22T07:18:27.292Z,28.67
2018-11-22T07:20:58.512Z,22.07
2018-11-22T07:23:29.747Z,21.50
2018-11-22T07:26:00.958Z,21.93
2018-11-22T07:28:32.169Z,21.70
2018-11-22T07:31:03.371Z,20.77
2018-11-22T07:33:38.264Z,20.17
2018-11-22T07:36:05.734Z,19.77
2018-11-22T07:38:36.871Z,18.27
2018-11-22T07:41:08.223Z,18.90
2018-11-22T07:43:39.514Z,16.63
2018-11-22T07:46:10.750Z,17.23
2018-11-22T07:48:41.954Z,17.17
2018-11-22T07:51:13.170Z,16.70
2018-11-22T07:53:45.404Z,20.88
2018-11-22T07:56:16.584Z,18.83
2018-11-22T07:58:47.771Z,17.97
2018-11-22T08:01:19.027Z,18.57
2018-11-22T08:03:50.283Z,18.10
2018-11-22T08:06:21.498Z,19.70
2018-11-22T08:08:52.686Z,17.10
2018-11-22T08:11:24.365Z,17.52
2018-11-22T08:13:55.672Z,20.27
2018-11-22T08:16:26.854Z,18.27
2018-11-22T08:18:58.067Z,19.50
2018-11-22T08:21:29.264Z,18.07
2018-11-22T08:24:00.493Z,16.63
2018-11-22T08:26:31.804Z,18.53
2018-11-22T08:29:04.230Z,18.10
2018-11-22T08:31:35.506Z,16.30
2018-11-22T08:34:06.802Z,16.77
2018-11-22T08:36:38.013Z,16.45
2018-11-22T08:39:11.377Z,15.70
2018-11-22T08:44:13.137Z,16.37
2018-11-22T08:46:44.387Z,15.50
2018-11-22T08:49:15.600Z,15.10
2018-11-22T08:51:46.808Z,13.50
2018-11-22T08:54:17.996Z,13.80
2018-11-22T08:56:49.324Z,13.63
2018-11-22T08:59:20.528Z,14.63
2018-11-22T09:01:51.751Z,15.70
2018-11-22T09:06:53.322Z,13.17
2018-11-22T09:09:24.597Z,14.10
2018-11-22T09:11:55.772Z,13.80
2018-11-22T09:14:27.070Z,13.43
2018-11-22T09:16:58.335Z,14.37
2018-11-22T09:19:29.541Z,12.57
2018-11-22T09:22:01.384Z,12.03
2018-11-22T09:24:32.568Z,12.77
2018-11-22T09:27:03.794Z,11.53
2018-11-22T09:29:39.497Z,11.43
2018-11-22T09:32:07.279Z,12.37
2018-11-22T09:34:38.492Z,12.80
2018-11-22T09:37:09.746Z,12.70
2018-11-22T09:39:41.168Z,12.15
2018-11-22T09:42:12.665Z,12.23
2018-11-22T09:44:43.928Z,12.40
2018-11-22T09:47:15.120Z,12.23
2018-11-22T09:49:46.356Z,12.40
2018-11-22T09:52:17.539Z,12.63
2018-11-22T09:54:48.761Z,13.00
2018-11-22T09:57:19.979Z,13.23
2018-11-22T09:59:51.196Z,13.30
2018-11-22T10:02:22.391Z,12.93
2018-11-22T10:04:53.795Z,12.03
2018-11-22T10:07:25.167Z,12.03
2018-11-22T10:09:56.441Z,12.13
2018-11-22T10:12:27.824Z,11.83
2018-11-22T10:14:59.540Z,12.67
2018-11-22T10:17:30.721Z,11.33
2018-11-22T10:20:01.897Z,10.87
2018-11-22T10:22:33.223Z,12.67
2018-11-22T10:25:04.565Z,12.13
2018-11-22T10:27:35.783Z,12.93
2018-11-22T10:30:14.839Z,12.40
2018-11-22T10:32:53.136Z,10.90
2018-11-22T10:35:25.838Z,10.83
2018-11-22T10:37:57.376Z,11.30
2018-11-22T10:40:28.945Z,9.80
2018-11-22T10:45:34.788Z,9.30
2018-11-22T10:48:08.003Z,9.10
2018-11-22T10:50:39.369Z,9.80
2018-11-22T10:53:10.545Z,9.43
2018-11-22T10:55:43.264Z,10.00
2018-11-22T10:58:14.351Z,10.17
2018-11-22T11:01:02.695Z,10.00
2018-11-22T11:03:43.013Z,9.90
2018-11-22T11:06:31.809Z,9.90
2018-11-22T11:09:03.140Z,10.07
2018-11-22T11:11:34.282Z,10.17
2018-11-22T11:14:05.476Z,10.63
2018-11-22T11:16:36.654Z,10.27
2018-11-22T11:19:07.976Z,9.93
2018-11-22T11:21:39.145Z,10.13
2018-11-22T11:24:10.320Z,10.50
2018-11-22T11:26:41.403Z,10.30
2018-11-22T11:29:12.842Z,11.03
2018-11-22T11:31:44.242Z,10.80
2018-11-22T11:34:15.400Z,10.63
2018-11-22T11:36:46.473Z,10.70
2018-11-22T11:39:17.567Z,10.40
2018-11-22T11:41:48.726Z,10.10
2018-11-22T11:44:19.912Z,10.70
2018-11-22T11:46:51.088Z,10.20
2018-11-22T11:49:22.910Z,10.38
2018-11-22T11:51:54.113Z,10.63
2018-11-22T11:54:25.093Z,10.10
2018-11-22T11:56:56.270Z,10.55
2018-11-22T11:59:27.414Z,10.53
2018-11-22T12:01:58.513Z,10.93
2018-11-22T12:04:29.683Z,11.27
2018-11-22T12:07:01.790Z,10.58
2018-11-22T12:09:32.849Z,10.87
2018-11-22T12:12:03.913Z,10.93
2018-11-22T12:14:35.013Z,10.90
2018-11-22T12:17:06.121Z,11.35
2018-11-22T12:19:37.243Z,11.27
2018-11-22T12:22:08.573Z,11.23
2018-11-22T12:24:41.000Z,10.05
2018-11-22T12:27:12.096Z,10.37
2018-11-22T12:29:43.163Z,11.50
2018-11-22T12:32:31.182Z,11.90
2018-11-22T12:35:39.561Z,10.88
2018-11-22T12:38:27.664Z,10.90
2018-11-22T12:40:58.814Z,10.80
2018-11-22T12:43:30.034Z,11.10
2018-11-22T12:46:01.160Z,11.10
2018-11-22T12:48:32.467Z,10.73
2018-11-22T12:51:03.662Z,11.03
2018-11-22T12:53:34.656Z,10.70
2018-11-22T12:56:05.923Z,11.20
2018-11-22T12:58:37.362Z,11.40
2018-11-22T13:01:08.844Z,11.12
2018-11-22T13:03:40.041Z,9.97
2018-11-22T13:06:11.461Z,10.82
2018-11-22T13:08:42.638Z,10.83
2018-11-22T13:11:13.835Z,10.87
2018-11-22T13:13:45.237Z,10.50
2018-11-22T13:16:16.506Z,9.73
2018-11-22T13:18:47.735Z,10.20
2018-11-22T13:21:18.937Z,10.37
2018-11-22T13:23:50.363Z,9.78
2018-11-22T13:26:21.575Z,10.70
2018-11-22T13:28:52.858Z,10.23
2018-11-22T13:31:24.034Z,9.50
2018-11-22T13:33:55.224Z,9.80
2018-11-22T13:36:26.445Z,9.15
2018-11-22T13:38:57.640Z,8.27
2018-11-22T13:41:29.309Z,8.18
2018-11-22T13:44:00.517Z,8.03
2018-11-22T13:46:31.697Z,7.63
2018-11-22T13:49:02.893Z,11.17
2018-11-22T13:51:34.146Z,8.17
2018-11-22T13:54:05.329Z,7.40
2018-11-22T13:56:36.614Z,7.03
2018-11-22T13:59:58.164Z,7.10
2018-11-22T14:02:22.234Z,7.30
2018-11-22T14:04:51.547Z,7.30
2018-11-22T14:07:20.891Z,8.13
2018-11-22T14:09:50.210Z,11.03
2018-11-22T14:12:19.542Z,11.63
2018-11-22T14:14:48.871Z,13.17
2018-11-22T14:17:18.210Z,13.63
2018-11-22T14:19:47.509Z,13.90
2018-11-22T14:22:16.751Z,14.10
2018-11-22T14:24:46.041Z,13.97
2018-11-22T14:27:15.320Z,13.67
2018-11-22T14:29:44.691Z,13.17
2018-11-22T14:32:14.043Z,14.17
2018-11-22T14:34:43.382Z,12.97
2018-11-22T14:37:12.812Z,14.45
2018-11-22T14:39:42.179Z,14.10
2018-11-22T14:42:11.508Z,13.73
2018-11-22T14:44:40.888Z,14.07
2018-11-22T14:47:10.258Z,14.43
2018-11-22T14:49:39.612Z,13.70
2018-11-22T14:52:09.050Z,14.13
2018-11-22T14:54:38.424Z,15.03
2018-11-22T14:57:07.829Z,13.53
2018-11-22T14:59:37.199Z,13.67
2018-11-22T15:02:06.586Z,13.73
2018-11-22T15:04:35.921Z,14.53
2018-11-22T15:07:05.410Z,14.03
2018-11-22T15:09:34.754Z,13.80
2018-11-22T15:12:04.082Z,14.27
2018-11-22T15:14:33.421Z,14.17
2018-11-22T15:17:02.746Z,13.97
2018-11-22T15:19:32.110Z,13.50
2018-11-22T15:22:01.415Z,14.33
2018-11-22T15:24:30.722Z,13.77
2018-11-22T15:27:00.040Z,15.03
2018-11-22T15:29:29.327Z,14.38
2018-11-22T15:31:59.010Z,13.57
2018-11-22T15:34:28.327Z,13.53
2018-11-22T15:36:57.691Z,13.97
2018-11-22T15:39:27.043Z,14.07
2018-11-22T15:41:56.362Z,13.57
2018-11-22T15:44:25.698Z,14.73
2018-11-22T15:46:55.023Z,13.67
2018-11-22T15:49:24.379Z,14.87
2018-11-22T15:51:53.720Z,13.65
2018-11-22T15:54:23.068Z,14.40
2018-11-22T15:56:52.379Z,14.10
2018-11-22T15:59:21.747Z,13.93
2018-11-22T16:01:51.371Z,13.53
2018-11-22T16:04:20.703Z,14.20
2018-11-22T16:06:50.083Z,15.37
2018-11-22T16:09:19.735Z,14.80
2018-11-22T16:11:49.103Z,14.65
2018-11-22T16:14:18.430Z,15.03
2018-11-22T16:16:47.806Z,14.90
2018-11-22T16:19:17.143Z,13.77
2018-11-22T16:21:46.525Z,14.63
2018-11-22T16:24:15.884Z,14.27
2018-11-22T16:26:45.235Z,14.03
2018-11-22T16:29:14.606Z,14.87
2018-11-22T16:31:43.938Z,15.93
2018-11-22T16:34:13.299Z,15.70
2018-11-22T16:36:42.651Z,15.77
2018-11-22T16:39:12.036Z,15.63
2018-11-22T16:41:41.358Z,14.50
2018-11-22T16:44:10.687Z,14.10
2018-11-22T16:46:40.294Z,15.13
2018-11-22T16:49:09.627Z,15.40
2018-11-22T16:51:38.944Z,15.77
2018-11-22T16:54:08.288Z,15.90
2018-11-22T16:56:37.640Z,15.07
2018-11-22T16:59:07.023Z,15.30
2018-11-22T17:01:36.344Z,13.50
2018-11-22T17:04:05.995Z,14.13
2018-11-22T17:06:35.350Z,14.13
2018-11-22T17:09:06.386Z,14.47
2018-11-22T17:11:36.467Z,13.72
2018-11-22T17:14:06.616Z,14.17
2018-11-22T17:16:36.136Z,13.17
2018-11-22T17:19:05.463Z,13.80
2018-11-22T17:21:35.106Z,14.57
2018-11-22T17:24:04.883Z,13.85
2018-11-22T17:26:34.261Z,13.83
2018-11-22T17:29:03.618Z,13.17
2018-11-22T17:31:33.140Z,13.28
2018-11-22T17:34:02.496Z,13.33
2018-11-22T17:36:32.868Z,13.13
2018-11-22T17:39:02.466Z,14.27
2018-11-22T17:41:31.880Z,13.53
2018-11-22T17:44:01.228Z,13.83
2018-11-22T17:46:30.597Z,14.90
2018-11-22T17:49:01.234Z,14.83
2018-11-22T17:51:30.563Z,14.83
2018-11-22T17:54:00.012Z,14.78
2018-11-22T17:56:29.663Z,14.27
2018-11-22T17:58:59.030Z,14.20
2018-11-22T18:01:29.683Z,13.33
2018-11-22T18:03:59.064Z,14.07
2018-11-22T18:06:28.682Z,13.40
2018-11-22T18:08:58.071Z,14.27
2018-11-22T18:11:27.411Z,14.23
2018-11-22T18:18:55.176Z,15.17
2018-11-22T18:21:24.520Z,14.73
2018-11-22T18:23:53.936Z,16.37
2018-11-22T18:26:23.318Z,15.50
2018-11-22T18:28:52.740Z,16.80
2018-11-22T18:31:22.074Z,15.85
2018-11-22T18:33:51.459Z,16.37
2018-11-22T18:36:22.119Z,16.27
2018-11-22T18:38:54.495Z,18.07
2018-11-22T18:41:23.847Z,18.45
2018-11-22T18:43:53.190Z,18.17
2018-11-22T18:46:22.572Z,18.35
2018-11-22T18:48:51.987Z,16.37
2018-11-22T18:51:21.322Z,16.40
2018-11-22T18:53:50.716Z,16.57
2018-11-22T18:56:20.095Z,17.35
2018-11-22T18:58:49.450Z,17.13
2018-11-22T19:01:18.815Z,17.03
2018-11-22T19:03:48.174Z,17.53
2018-11-22T19:06:17.516Z,17.50
2018-11-22T19:08:47.143Z,16.93
2018-11-22T19:11:16.470Z,16.97
2018-11-22T19:13:45.802Z,16.63
2018-11-22T19:16:15.155Z,17.13
2018-11-22T19:18:44.513Z,17.03
2018-11-22T19:21:13.886Z,20.47
2018-11-22T19:23:43.230Z,19.73
2018-11-22T19:26:12.586Z,18.93
2018-11-22T19:28:42.044Z,17.60
2018-11-22T19:31:11.423Z,15.83
2018-11-22T19:33:40.781Z,15.93
2018-11-22T19:36:10.171Z,17.12
2018-11-22T19:38:39.535Z,16.17
2018-11-22T19:41:08.903Z,16.53
2018-11-22T19:43:38.251Z,15.20
2018-11-22T19:46:07.647Z,16.07
2018-11-22T19:48:36.970Z,15.77
2018-11-22T19:51:06.504Z,17.33
2018-11-22T19:53:35.882Z,17.03
2018-11-22T19:56:05.259Z,17.80
2018-11-22T19:58:34.624Z,16.77
2018-11-22T20:01:07.749Z,16.17
2018-11-22T20:03:33.460Z,16.63
2018-11-22T20:06:02.780Z,17.10
2018-11-22T20:08:32.141Z,16.63
2018-11-22T20:11:01.498Z,25.73
2018-11-22T20:13:30.899Z,17.37
2018-11-22T20:16:00.243Z,15.63
2018-11-22T20:18:29.600Z,15.97
2018-11-22T20:20:58.983Z,16.10
2018-11-22T20:23:28.334Z,16.80
2018-11-22T20:25:57.755Z,16.33
2018-11-22T20:28:27.097Z,16.03
2018-11-22T20:30:56.463Z,15.80
2018-11-22T20:35:52.451Z,15.60
2018-11-22T20:38:21.811Z,15.27
2018-11-22T20:40:57.258Z,15.23
2018-11-22T20:43:21.936Z,16.23
2018-11-22T20:45:51.282Z,18.02
2018-11-22T20:48:20.899Z,16.60
2018-11-22T20:50:50.227Z,16.63
2018-11-22T20:53:19.608Z,16.83
2018-11-22T20:55:48.991Z,16.83
2018-11-22T20:58:18.400Z,16.55
2018-11-22T21:00:47.776Z,16.50
2018-11-22T21:03:17.123Z,16.23
2018-11-22T21:05:46.467Z,16.60
2018-11-22T21:08:15.814Z,16.77
2018-11-22T21:10:45.201Z,15.63
2018-11-22T21:13:14.537Z,15.57
2018-11-22T21:15:43.955Z,15.37
2018-11-22T21:18:13.312Z,15.40
2018-11-22T21:20:42.813Z,17.10
2018-11-22T21:23:12.442Z,16.73
2018-11-22T21:25:41.762Z,17.00
2018-11-22T21:28:11.077Z,19.13
2018-11-22T21:30:40.881Z,16.33
2018-11-22T21:33:10.209Z,15.65
2018-11-22T21:35:39.591Z,15.87
2018-11-22T21:38:09.410Z,17.20
2018-11-22T21:40:39.955Z,18.12
2018-11-22T21:43:09.319Z,18.07
2018-11-22T21:45:38.727Z,18.00
2018-11-22T21:48:08.115Z,16.20
2018-11-22T21:50:37.513Z,16.37
2018-11-22T21:53:08.418Z,17.67
2018-11-22T21:55:37.795Z,19.67
2018-11-22T21:58:07.174Z,19.47
2018-11-22T22:00:39.355Z,24.03
2018-11-22T22:03:10.272Z,27.02
2018-11-22T22:05:40.210Z,28.27
2018-11-22T22:08:09.610Z,28.27
2018-11-22T22:10:38.991Z,29.57
2018-11-22T22:13:08.402Z,32.33
2018-11-22T22:15:38.222Z,28.40
2018-11-22T22:18:08.852Z,35.57
2018-11-22T22:20:38.426Z,36.37
2018-11-22T22:23:13.188Z,33.97
2018-11-22T22:25:37.330Z,34.53
2018-11-22T22:28:06.645Z,34.33
2018-11-22T22:30:36.085Z,32.90
2018-11-22T22:33:06.674Z,29.10
2018-11-22T22:35:36.094Z,27.00
2018-11-22T22:38:05.568Z,26.70
2018-11-22T22:40:41.232Z,27.93
2018-11-22T22:43:10.603Z,25.20
2018-11-22T22:45:39.925Z,23.38
2018-11-22T22:48:10.066Z,27.27
2018-11-22T22:50:39.431Z,26.50
2018-11-22T22:53:08.816Z,24.47
2018-11-22T22:55:38.152Z,25.53
2018-11-22T22:58:07.561Z,26.17
2018-11-22T23:00:41.213Z,25.27
2018-11-22T23:03:10.622Z,28.77
2018-11-22T23:05:40.024Z,30.02
2018-11-22T23:08:09.416Z,28.93
2018-11-22T23:10:38.784Z,31.63
2018-11-22T23:13:08.395Z,31.57
2018-11-22T23:15:37.758Z,29.00
2018-11-22T23:18:07.189Z,31.07
2018-11-22T23:20:37.597Z,30.70
2018-11-22T23:23:06.967Z,28.73
2018-11-22T23:25:36.314Z,28.23
2018-11-22T23:28:05.708Z,27.30
2018-11-22T23:30:35.810Z,29.00
2018-11-22T23:33:06.520Z,31.30
2018-11-22T23:35:35.940Z,30.23
2018-11-22T23:38:05.376Z,28.87
2018-11-22T23:40:36.048Z,29.98
2018-11-22T23:43:06.198Z,40.80
2018-11-22T23:45:35.155Z,34.20
2018-11-22T23:48:04.596Z,32.33
2018-11-22T23:50:34.428Z,32.73
2018-11-22T23:53:04.763Z,30.63
2018-11-22T23:55:34.139Z,31.80
2018-11-22T23:58:03.478Z,30.27
